Time;durP1;ratioP1;P1;durP2;ratioP2;P2;SDS_P1;SDS_P2;PMS_P1;PMS_P2;Temp;Humidity;BMP_temperature;BMP_pressure;BME280_temperature;BME280_humidity;BME280_pressure;Samples;Min_cycle;Max_cycle;Signal;HPM_P1;HPM_P2
2022/08/22 00:00:36;;;;;;;14.50;5.72;;;17.60;99.90;;;;;;3058058;19;20014;-74
2022/08/22 00:01:47;;;;;;;9.85;5.53;;;17.40;99.90;;;;;;3058316;19;20352;-73
2022/08/22 00:03:04;;;;;;;11.10;5.70;;;17.50;99.90;;;;;;3058441;19;20022;-73
2022/08/22 00:04:22;;;;;;;13.95;6.22;;;17.50;99.90;;;;;;3058937;19;20073;-73
2022/08/22 00:05:32;;;;;;;10.18;5.50;;;17.60;99.90;;;;;;3058815;19;20005;-73
2022/08/22 00:06:47;;;;;;;9.63;4.90;;;17.50;99.90;;;;;;3058511;19;20010;-73
2022/08/22 00:07:55;;;;;;;15.73;6.03;;;17.70;99.90;;;;;;3057821;19;20003;-74
2022/08/22 00:09:10;;;;;;;10.68;6.15;;;17.60;99.90;;;;;;3058596;19;20021;-73
2022/08/22 00:10:16;;;;;;;12.25;6.00;;;17.50;99.90;;;;;;3058507;19;20476;-74
2022/08/22 00:11:31;;;;;;;11.07;5.25;;;17.50;99.90;;;;;;3058458;19;20036;-73
2022/08/22 00:12:43;;;;;;;10.52;5.82;;;17.60;99.90;;;;;;3058747;19;20011;-73
2022/08/22 00:13:52;;;;;;;10.65;5.70;;;17.50;99.90;;;;;;3058677;19;20002;-73
2022/08/22 00:15:00;;;;;;;12.00;5.55;;;17.50;99.90;;;;;;3058431;19;20007;-74
2022/08/22 00:16:10;;;;;;;11.93;6.05;;;17.50;99.90;;;;;;3058412;19;20010;-73
2022/08/22 00:17:26;;;;;;;10.35;5.60;;;17.40;99.90;;;;;;3058654;19;20014;-74
2022/08/22 00:18:36;;;;;;;10.35;5.80;;;17.40;99.90;;;;;;3058725;19;20003;-74
2022/08/22 00:19:57;;;;;;;9.00;5.78;;;17.30;99.90;;;;;;3057898;19;20017;-73
2022/08/22 00:21:10;;;;;;;10.60;6.78;;;17.30;99.90;;;;;;3058499;19;20010;-73
2022/08/22 00:22:19;;;;;;;12.02;6.00;;;17.40;99.90;;;;;;3057507;19;20051;-73
2022/08/22 00:23:28;;;;;;;11.18;5.55;;;17.40;99.90;;;;;;3057699;19;20023;-72
2022/08/22 00:24:37;;;;;;;13.65;6.43;;;17.20;99.90;;;;;;3058692;19;20023;-73
2022/08/22 00:25:52;;;;;;;15.50;6.32;;;17.40;99.90;;;;;;3058401;19;20006;-73
2022/08/22 00:26:58;;;;;;;12.88;6.18;;;17.30;99.90;;;;;;3058324;19;20515;-73
2022/08/22 00:28:09;;;;;;;10.30;5.20;;;17.40;99.90;;;;;;3057455;19;20021;-73
2022/08/22 00:29:15;;;;;;;10.75;5.38;;;17.20;99.90;;;;;;3058391;19;20007;-72
2022/08/22 00:30:20;;;;;;;10.88;5.60;;;17.30;99.90;;;;;;3058386;19;20029;-73
2022/08/22 00:31:27;;;;;;;11.27;5.68;;;17.50;99.90;;;;;;3058559;19;20011;-73
2022/08/22 00:32:36;;;;;;;15.05;5.95;;;17.40;99.90;;;;;;3058289;19;20010;-73
2022/08/22 00:33:43;;;;;;;10.90;6.25;;;17.40;99.90;;;;;;3058184;19;20082;-73
2022/08/22 00:34:58;;;;;;;11.93;5.50;;;17.50;99.90;;;;;;3058565;19;20018;-73
2022/08/22 00:36:08;;;;;;;10.30;5.45;;;17.30;99.90;;;;;;3058177;19;20479;-73
2022/08/22 00:37:20;;;;;;;9.90;5.28;;;17.30;99.90;;;;;;3058489;19;20002;-73
2022/08/22 00:38:27;;;;;;;12.27;6.00;;;17.40;99.90;;;;;;3058227;19;20024;-73
2022/08/22 00:39:35;;;;;;;10.63;5.95;;;17.30;99.90;;;;;;3058209;19;20526;-73
2022/08/22 00:41:03;;;;;;;11.43;6.00;;;17.30;99.90;;;;;;3057987;19;20021;-73
2022/08/22 00:42:31;;;;;;;13.02;5.93;;;17.80;99.90;;;;;;3059167;19;20617;-73
2022/08/22 00:44:05;;;;;;;9.52;5.28;;;17.30;99.90;;;;;;3058178;19;20006;-73
2022/08/22 00:45:46;;;;;;;12.20;5.97;;;17.20;99.90;;;;;;3058224;19;20017;-73
2022/08/22 00:47:18;;;;;;;10.60;5.60;;;17.30;99.90;;;;;;3058089;19;20016;-73
2022/08/22 00:48:42;;;;;;;15.00;5.38;;;17.10;99.90;;;;;;3058254;19;19999;-73
2022/08/22 00:50:19;;;;;;;13.70;5.78;;;17.20;99.90;;;;;;3057809;19;20007;-74
2022/08/22 00:51:50;;;;;;;10.20;5.85;;;17.20;99.90;;;;;;3056284;19;20014;-73
2022/08/22 00:53:13;;;;;;;12.55;5.63;;;17.10;99.90;;;;;;3060761;19;20014;-73
2022/08/22 00:54:27;;;;;;;9.85;5.82;;;17.20;99.90;;;;;;3061585;19;20082;-73
2022/08/22 00:55:55;;;;;;;9.35;5.10;;;17.10;99.90;;;;;;3061544;19;20010;-74
2022/08/22 00:57:23;;;;;;;12.75;5.55;;;17.30;99.90;;;;;;3061414;19;20014;-73
2022/08/22 00:58:54;;;;;;;11.80;5.47;;;17.30;99.90;;;;;;3060940;19;20031;-73
2022/08/22 01:00:12;;;;;;;11.18;5.55;;;17.20;99.90;;;;;;3061157;19;20480;-73
2022/08/22 01:01:24;;;;;;;9.82;5.72;;;17.30;99.90;;;;;;3061261;19;20014;-73
2022/08/22 01:02:36;;;;;;;10.90;5.50;;;17.00;99.90;;;;;;3061366;19;20003;-73
2022/08/22 01:04:00;;;;;;;7.57;5.07;;;17.10;99.90;;;;;;3061325;19;20364;-73
2022/08/22 01:05:29;;;;;;;10.52;5.40;;;17.30;99.90;;;;;;3061250;19;20087;-73
2022/08/22 01:06:45;;;;;;;9.52;5.10;;;17.20;99.90;;;;;;3061225;19;20028;-73
2022/08/22 01:08:02;;;;;;;9.02;5.03;;;17.20;99.90;;;;;;3060302;19;20798;-73
2022/08/22 01:09:15;;;;;;;11.68;5.45;;;17.20;99.90;;;;;;3060987;19;20006;-73
2022/08/22 01:10:42;;;;;;;10.98;4.72;;;17.10;99.90;;;;;;3061150;19;20010;-73
2022/08/22 01:12:13;;;;;;;10.82;5.20;;;17.20;99.90;;;;;;3061027;19;20021;-73
2022/08/22 01:13:38;;;;;;;9.77;5.15;;;17.10;99.90;;;;;;3060954;19;20486;-73
2022/08/22 01:14:49;;;;;;;11.05;5.15;;;17.20;99.90;;;;;;3060021;19;20043;-73
2022/08/22 01:16:00;;;;;;;9.37;5.30;;;16.90;99.90;;;;;;3060859;19;20006;-72
2022/08/22 01:17:44;;;;;;;11.18;4.95;;;17.10;99.90;;;;;;3059917;19;20019;-73
2022/08/22 01:19:14;;;;;;;9.05;5.13;;;17.10;99.90;;;;;;3061230;19;20023;-73
2022/08/22 01:20:47;;;;;;;9.50;5.13;;;17.00;99.90;;;;;;3060889;19;20065;-73
2022/08/22 01:22:14;;;;;;;11.02;5.03;;;17.00;99.90;;;;;;3060724;19;20011;-72
2022/08/22 01:23:48;;;;;;;7.07;4.80;;;17.00;99.90;;;;;;3061150;19;20043;-73
2022/08/22 01:25:22;;;;;;;12.35;4.85;;;16.90;99.90;;;;;;3059350;19;20025;-73
2022/08/22 01:27:08;;;;;;;11.68;4.60;;;16.80;99.90;;;;;;3060774;19;20103;-73
2022/08/22 01:28:42;;;;;;;10.07;5.05;;;17.00;99.90;;;;;;3059121;19;20028;-73
2022/08/22 01:30:04;;;;;;;9.15;4.60;;;17.10;99.90;;;;;;3060834;19;20010;-73
2022/08/22 01:31:49;;;;;;;12.02;4.78;;;16.90;99.90;;;;;;3060805;19;20006;-73
2022/08/22 01:33:35;;;;;;;10.52;4.40;;;17.00;99.90;;;;;;3060797;19;20011;-73
2022/08/22 01:35:12;;;;;;;12.88;4.82;;;16.80;99.90;;;;;;3060644;19;20014;-73
2022/08/22 01:36:46;;;;;;;7.43;4.32;;;17.00;99.90;;;;;;3060497;19;20378;-73
2022/08/22 01:38:16;;;;;;;10.40;4.90;;;16.90;99.90;;;;;;3060925;19;20031;-72
2022/08/22 01:39:50;;;;;;;12.32;4.90;;;16.90;99.90;;;;;;3059595;19;20055;-73
2022/08/22 01:41:25;;;;;;;15.45;4.60;;;17.00;99.90;;;;;;3060321;19;20018;-73
2022/08/22 01:42:53;;;;;;;9.82;4.60;;;16.80;99.90;;;;;;3060922;19;20006;-73
2022/08/22 01:44:07;;;;;;;9.30;4.70;;;17.00;99.90;;;;;;3061021;19;20080;-73
2022/08/22 01:45:55;;;;;;;10.65;4.88;;;16.90;99.90;;;;;;3060521;19;20011;-73
2022/08/22 01:47:03;;;;;;;13.02;5.45;;;16.90;99.90;;;;;;3058917;19;20019;-72
2022/08/22 01:48:13;;;;;;;10.52;4.53;;;16.80;99.90;;;;;;3059532;19;20010;-74
2022/08/22 01:49:20;;;;;;;8.18;4.60;;;16.80;99.90;;;;;;3059856;19;20595;-73
2022/08/22 01:50:34;;;;;;;10.63;4.60;;;16.80;99.90;;;;;;3060722;19;20014;-72
2022/08/22 01:51:42;;;;;;;9.15;4.55;;;16.80;99.90;;;;;;3060401;19;20010;-73
2022/08/22 01:52:51;;;;;;;13.98;4.53;;;16.80;99.90;;;;;;3059637;19;20082;-74
2022/08/22 01:53:59;;;;;;;8.88;4.60;;;16.90;99.90;;;;;;3059866;19;20526;-74
2022/08/22 01:55:09;;;;;;;10.07;5.03;;;17.00;99.90;;;;;;3060278;19;20081;-74
2022/08/22 01:56:13;;;;;;;7.93;4.68;;;16.80;99.90;;;;;;3060373;19;20022;-74
2022/08/22 01:57:18;;;;;;;9.52;5.20;;;16.90;99.90;;;;;;3060290;19;20011;-73
2022/08/22 01:58:23;;;;;;;15.65;5.47;;;17.00;99.90;;;;;;3060354;19;20074;-74
2022/08/22 01:59:35;;;;;;;10.80;4.80;;;17.10;99.90;;;;;;3060459;19;20026;-74
2022/08/22 02:00:57;;;;;;;8.77;4.90;;;16.70;99.90;;;;;;3060537;19;20022;-74
2022/08/22 02:02:03;;;;;;;;;;;16.70;99.90;;;;;;3060992;19;20364;-74
2022/08/22 02:03:15;;;;;;;8.55;4.50;;;16.80;99.90;;;;;;3060254;19;19910;-73
2022/08/22 02:04:31;;;;;;;11.18;4.90;;;16.60;99.90;;;;;;3060445;19;20460;-73
2022/08/22 02:05:45;;;;;;;12.70;5.20;;;16.70;99.90;;;;;;3060188;19;20018;-73
2022/08/22 02:07:00;;;;;;;10.30;4.65;;;16.70;99.90;;;;;;3060595;19;20018;-74
2022/08/22 02:08:05;;;;;;;11.63;4.97;;;16.80;99.90;;;;;;3059584;19;20341;-74
2022/08/22 02:09:22;;;;;;;13.55;5.10;;;16.80;99.90;;;;;;3060465;19;20011;-74
2022/08/22 02:10:47;;;;;;;12.63;4.90;;;16.70;99.90;;;;;;3060103;19;20369;-73
2022/08/22 02:11:53;;;;;;;10.05;4.80;;;16.70;99.90;;;;;;3060159;19;20011;-74
2022/08/22 02:13:06;;;;;;;11.07;4.95;;;16.70;99.90;;;;;;3060328;19;20008;-73
2022/08/22 02:14:20;;;;;;;11.43;5.07;;;16.80;99.90;;;;;;3059607;19;20010;-73
2022/08/22 02:15:29;;;;;;;9.77;4.97;;;16.90;99.90;;;;;;3060057;19;20018;-74
2022/08/22 02:16:37;;;;;;;10.52;4.50;;;16.90;99.90;;;;;;3059964;19;20006;-74
2022/08/22 02:17:57;;;;;;;10.82;5.10;;;16.80;99.90;;;;;;3060332;19;20011;-73
2022/08/22 02:19:20;;;;;;;11.95;4.72;;;16.90;99.90;;;;;;3059639;19;20011;-74
2022/08/22 02:20:28;;;;;;;10.05;5.10;;;16.90;99.90;;;;;;3060023;19;20018;-74
2022/08/22 02:21:42;;;;;;;12.45;4.95;;;16.80;99.90;;;;;;3060128;19;20499;-74
2022/08/22 02:22:58;;;;;;;9.73;4.80;;;16.90;99.90;;;;;;3060031;19;20025;-74
2022/08/22 02:24:14;;;;;;;11.23;5.05;;;16.70;99.90;;;;;;3059913;19;20014;-74
2022/08/22 02:25:25;;;;;;;10.40;4.95;;;16.90;99.90;;;;;;3060166;19;20401;-74
2022/08/22 02:26:44;;;;;;;8.60;4.40;;;16.90;99.90;;;;;;3059977;19;20011;-74
2022/08/22 02:27:56;;;;;;;12.90;4.95;;;16.80;99.90;;;;;;3059084;19;20013;-73
2022/08/22 02:29:03;;;;;;;9.23;4.95;;;16.70;99.90;;;;;;3059878;19;20011;-74
2022/08/22 02:30:11;;;;;;;11.10;5.00;;;16.70;99.90;;;;;;3059971;19;20007;-74
2022/08/22 02:31:19;;;;;;;11.85;4.80;;;16.70;99.90;;;;;;3059933;19;20015;-74
2022/08/22 02:32:29;;;;;;;11.55;4.75;;;16.70;99.90;;;;;;3060047;19;20027;-74
2022/08/22 02:33:37;;;;;;;12.30;4.45;;;16.80;99.90;;;;;;3059965;19;20015;-73
2022/08/22 02:34:46;;;;;;;11.02;5.40;;;16.80;99.90;;;;;;3059986;19;20014;-74
2022/08/22 02:35:53;;;;;;;12.35;5.15;;;16.70;99.90;;;;;;3059961;19;19999;-73
2022/08/22 02:37:10;;;;;;;15.20;5.25;;;16.70;99.90;;;;;;3059815;19;20021;-75
2022/08/22 02:38:24;;;;;;;8.25;4.90;;;16.80;99.90;;;;;;3060176;19;20010;-74
2022/08/22 02:39:37;;;;;;;8.90;4.65;;;16.80;99.90;;;;;;3059765;19;20011;-74
2022/08/22 02:40:44;;;;;;;7.63;4.78;;;16.70;99.90;;;;;;3059608;19;20433;-74
2022/08/22 02:41:53;;;;;;;9.30;4.63;;;16.80;99.90;;;;;;3060580;19;20011;-73
2022/08/22 02:43:01;;;;;;;7.43;4.88;;;16.80;99.90;;;;;;3059732;19;20015;-74
2022/08/22 02:44:17;;;;;;;9.23;5.10;;;16.60;99.90;;;;;;3059818;19;20490;-74
2022/08/22 02:45:25;;;;;;;10.07;4.78;;;16.60;99.90;;;;;;3059585;19;20492;-74
2022/08/22 02:46:34;;;;;;;10.80;5.13;;;16.60;99.90;;;;;;3059727;19;20426;-74
2022/08/22 02:47:58;;;;;;;11.05;5.25;;;16.60;99.90;;;;;;3059533;19;20011;-73
2022/08/22 02:49:11;;;;;;;9.77;4.85;;;16.60;99.90;;;;;;3059411;19;20280;-74
2022/08/22 02:50:18;;;;;;;11.57;4.95;;;16.50;99.90;;;;;;3059803;19;20010;-74
2022/08/22 02:51:32;;;;;;;15.10;5.32;;;16.40;99.90;;;;;;3059547;19;20010;-73
2022/08/22 02:52:57;;;;;;;11.93;5.05;;;16.60;99.90;;;;;;3059638;19;20360;-74
2022/08/22 02:54:15;;;;;;;11.32;5.20;;;16.30;99.90;;;;;;3059632;19;20007;-74
2022/08/22 02:55:28;;;;;;;13.32;4.75;;;16.50;99.90;;;;;;3059563;19;20078;-74
2022/08/22 02:56:39;;;;;;;11.82;5.45;;;16.50;99.90;;;;;;3059914;19;20027;-74
2022/08/22 02:57:48;;;;;;;11.80;5.00;;;16.50;99.90;;;;;;3059699;19;20019;-73
2022/08/22 02:58:55;;;;;;;8.60;5.00;;;16.50;99.90;;;;;;3059676;19;20010;-73
2022/08/22 03:00:14;;;;;;;10.82;5.03;;;16.50;99.90;;;;;;3059625;19;20014;-73
2022/08/22 03:01:36;;;;;;;9.30;4.90;;;16.60;99.90;;;;;;3059625;19;20051;-73
2022/08/22 03:02:45;;;;;;;10.88;4.90;;;16.50;99.90;;;;;;3059523;19;20014;-73
2022/08/22 03:03:50;;;;;;;11.00;5.20;;;16.60;99.90;;;;;;3059441;19;20010;-74
2022/08/22 03:04:53;;;;;;;10.63;5.38;;;16.30;99.90;;;;;;3059672;19;20480;-74
2022/08/22 03:06:06;;;;;;;10.00;5.10;;;16.40;99.90;;;;;;3059459;19;20017;-74
2022/08/22 03:07:13;;;;;;;9.90;5.22;;;16.30;99.90;;;;;;3059639;19;20040;-74
2022/08/22 03:08:25;;;;;;;11.25;4.95;;;16.40;99.90;;;;;;3059172;19;20051;-73
2022/08/22 03:09:30;;;;;;;13.25;5.35;;;16.40;99.90;;;;;;3059490;19;20010;-74
2022/08/22 03:10:40;;;;;;;10.98;5.55;;;16.30;99.90;;;;;;3059462;19;20015;-74
2022/08/22 03:11:45;;;;;;;10.85;5.18;;;16.40;99.90;;;;;;3059679;19;20028;-74
2022/08/22 03:13:00;;;;;;;9.45;5.03;;;16.30;99.90;;;;;;3059558;19;20077;-74
2022/08/22 03:14:06;;;;;;;11.57;5.38;;;16.50;99.90;;;;;;3059162;19;20003;-73
2022/08/22 03:15:18;;;;;;;10.10;4.90;;;16.20;99.90;;;;;;3057982;19;20011;-74
2022/08/22 03:16:27;;;;;;;13.35;4.75;;;16.30;99.90;;;;;;3059369;19;20014;-73
2022/08/22 03:17:36;;;;;;;12.00;6.03;;;16.20;99.90;;;;;;3059573;19;20007;-74
2022/08/22 03:18:44;;;;;;;9.13;5.20;;;16.30;99.90;;;;;;3059142;19;20006;-74
2022/08/22 03:19:56;;;;;;;14.10;5.35;;;16.40;99.90;;;;;;3059065;19;20014;-74
2022/08/22 03:21:15;;;;;;;13.38;5.22;;;16.30;99.90;;;;;;3059139;19;20017;-73
2022/08/22 03:22:23;;;;;;;12.13;5.53;;;16.20;99.90;;;;;;3059358;19;20046;-73
2022/08/22 03:23:45;;;;;;;14.57;5.57;;;16.10;99.90;;;;;;3059169;19;20010;-74
2022/08/22 03:24:49;;;;;;;;;;;16.30;99.90;;;;;;3059677;19;20041;-73
2022/08/22 03:26:02;;;;;;;10.35;5.18;;;16.10;99.90;;;;;;3059411;19;19919;-74
2022/08/22 03:27:10;;;;;;;11.70;5.28;;;16.20;99.90;;;;;;3058914;19;20015;-74
2022/08/22 03:28:20;;;;;;;10.05;4.95;;;16.20;99.90;;;;;;3059202;19;20074;-74
2022/08/22 03:29:30;;;;;;;10.68;5.43;;;16.20;99.90;;;;;;3059123;19;20014;-73
2022/08/22 03:30:36;;;;;;;9.77;4.97;;;16.00;99.90;;;;;;3059194;19;20018;-74
2022/08/22 03:32:11;;;;;;;11.57;5.68;;;16.10;99.90;;;;;;3059134;19;20020;-74
2022/08/22 03:33:16;;;;;;;8.73;5.07;;;16.00;99.90;;;;;;3058866;19;20007;-74
2022/08/22 03:34:25;;;;;;;11.15;5.70;;;16.10;99.90;;;;;;3059132;19;20011;-74
2022/08/22 03:35:35;;;;;;;10.48;5.78;;;15.90;99.90;;;;;;3058913;19;20018;-73
2022/08/22 03:36:39;;;;;;;9.95;5.63;;;16.00;99.90;;;;;;3059047;19;20010;-74
2022/08/22 03:37:43;;;;;;;9.63;5.70;;;16.00;99.90;;;;;;3059098;19;20492;-73
2022/08/22 03:39:10;;;;;;;8.82;5.25;;;15.90;99.90;;;;;;3059326;19;20521;-74
2022/08/22 03:40:24;;;;;;;16.52;5.80;;;16.20;99.90;;;;;;3059115;19;20685;-73
2022/08/22 03:41:53;;;;;;;9.90;5.70;;;16.10;99.90;;;;;;3059385;19;20099;-74
2022/08/22 03:43:20;;;;;;;11.00;6.15;;;16.00;99.90;;;;;;3059066;19;20062;-73
2022/08/22 03:44:59;;;;;;;11.13;5.88;;;16.10;99.90;;;;;;3059054;19;20476;-73
2022/08/22 03:46:39;;;;;;;12.55;5.90;;;15.90;99.90;;;;;;3058996;19;20014;-74
2022/08/22 03:48:03;;;;;;;14.98;6.32;;;15.90;99.90;;;;;;3058769;19;20010;-73
2022/08/22 03:49:36;;;;;;;13.23;6.18;;;15.80;99.90;;;;;;3057844;19;20031;-74
2022/08/22 03:50:49;;;;;;;;;;;15.90;99.90;;;;;;3059631;19;20003;-74
2022/08/22 03:52:25;;;;;;;11.95;6.63;;;15.80;99.90;;;;;;3058894;19;19915;-74
2022/08/22 03:54:06;;;;;;;11.82;5.95;;;15.90;99.90;;;;;;3059215;19;20013;-74
2022/08/22 03:55:25;;;;;;;11.30;6.47;;;15.80;99.90;;;;;;3057362;19;20112;-74
2022/08/22 03:57:20;;;;;;;8.85;6.15;;;15.80;99.90;;;;;;3058893;19;20379;-74
2022/08/22 03:58:52;;;;;;;11.02;6.38;;;15.80;99.90;;;;;;3058737;19;20027;-74
2022/08/22 04:00:10;;;;;;;12.52;6.63;;;15.70;99.90;;;;;;3058851;19;20008;-75
2022/08/22 04:01:41;;;;;;;11.75;6.57;;;15.80;99.90;;;;;;3058671;19;20014;-74
2022/08/22 04:03:12;;;;;;;14.25;6.43;;;15.90;99.90;;;;;;3058767;19;20010;-74
2022/08/22 04:04:49;;;;;;;13.57;6.88;;;15.90;99.90;;;;;;3058569;19;20475;-74
2022/08/22 04:06:26;;;;;;;12.73;6.68;;;15.70;99.90;;;;;;3058766;19;20480;-74
2022/08/22 04:07:55;;;;;;;14.57;6.25;;;15.70;99.90;;;;;;3058867;19;20006;-73
2022/08/22 04:09:24;;;;;;;11.45;6.78;;;15.70;99.90;;;;;;3058042;19;20492;-74
2022/08/22 04:10:41;;;;;;;10.98;6.43;;;15.90;99.90;;;;;;3058581;19;20010;-73
2022/08/22 04:12:17;;;;;;;10.63;6.50;;;15.50;99.90;;;;;;3058683;19;20035;-73
2022/08/22 04:13:38;;;;;;;12.52;7.13;;;15.80;99.90;;;;;;3058624;19;20010;-74
2022/08/22 04:15:01;;;;;;;12.68;6.40;;;15.80;99.90;;;;;;3057827;19;20014;-73
2022/08/22 04:16:37;;;;;;;11.48;6.95;;;15.60;99.90;;;;;;3058593;19;20006;-72
2022/08/22 04:18:03;;;;;;;12.35;6.97;;;15.80;99.90;;;;;;3058531;19;20013;-73
2022/08/22 04:19:40;;;;;;;12.90;6.97;;;15.70;99.90;;;;;;3057850;19;20500;-74
2022/08/22 04:21:26;;;;;;;12.10;6.65;;;15.70;99.90;;;;;;3058355;19;20002;-74
2022/08/22 04:22:56;;;;;;;11.07;6.47;;;15.70;99.90;;;;;;3057009;19;20014;-73
2022/08/22 04:24:13;;;;;;;10.52;6.40;;;15.80;99.90;;;;;;3058490;19;20002;-73
2022/08/22 04:25:22;;;;;;;13.30;6.72;;;15.70;99.90;;;;;;3058395;19;20520;-74
2022/08/22 04:26:35;;;;;;;12.25;6.28;;;15.70;99.90;;;;;;3057832;19;20500;-74
2022/08/22 04:27:48;;;;;;;12.88;6.97;;;15.70;99.90;;;;;;3056349;19;20022;-74
2022/08/22 04:28:55;;;;;;;12.85;7.05;;;15.70;99.90;;;;;;3058056;19;20491;-74
2022/08/22 04:30:06;;;;;;;11.73;6.00;;;15.80;99.90;;;;;;3058326;19;20013;-74
2022/08/22 04:31:10;;;;;;;10.23;6.20;;;16.70;99.90;;;;;;3058407;19;20062;-73
2022/08/22 04:32:22;;;;;;;10.45;6.28;;;15.80;99.90;;;;;;3058413;19;20039;-73
2022/08/22 04:33:27;;;;;;;11.55;6.07;;;15.60;99.90;;;;;;3058454;19;20014;-74
2022/08/22 04:34:37;;;;;;;11.15;6.22;;;15.70;99.90;;;;;;3058575;19;20023;-74
2022/08/22 04:35:43;;;;;;;13.13;6.68;;;15.70;99.90;;;;;;3058081;19;20024;-74
2022/08/22 04:36:53;;;;;;;14.60;6.45;;;15.70;99.90;;;;;;3058320;19;20015;-74
2022/08/22 04:37:59;;;;;;;12.52;6.60;;;15.70;99.90;;;;;;3058187;19;20476;-73
2022/08/22 04:39:08;;;;;;;10.75;6.05;;;15.80;99.90;;;;;;3058283;19;20031;-73
2022/08/22 04:40:18;;;;;;;9.65;5.75;;;15.80;99.90;;;;;;3057956;19;20018;-74
2022/08/22 04:41:27;;;;;;;13.43;6.25;;;15.80;99.90;;;;;;3058638;19;20006;-73
2022/08/22 04:42:36;;;;;;;11.18;6.00;;;15.90;99.90;;;;;;3058143;19;20003;-72
2022/08/22 04:43:47;;;;;;;13.95;6.05;;;15.90;99.90;;;;;;3058074;19;20015;-73
2022/08/22 04:44:56;;;;;;;12.88;6.13;;;15.90;99.90;;;;;;3058240;19;20018;-74
2022/08/22 04:46:07;;;;;;;14.50;6.63;;;15.90;99.90;;;;;;3058161;19;20014;-74
2022/08/22 04:47:28;;;;;;;11.27;6.10;;;16.00;99.90;;;;;;3058100;19;20019;-73
2022/08/22 04:48:36;;;;;;;13.15;6.43;;;15.90;99.90;;;;;;3057944;19;20014;-73
2022/08/22 04:49:42;;;;;;;15.77;6.63;;;15.90;99.90;;;;;;3056903;19;20003;-74
2022/08/22 04:50:52;;;;;;;12.13;6.75;;;15.90;99.90;;;;;;3058029;19;20040;-74
2022/08/22 04:52:06;;;;;;;9.70;5.80;;;15.80;99.90;;;;;;3057400;19;20034;-73
2022/08/22 04:53:30;;;;;;;12.70;6.72;;;15.90;99.90;;;;;;3057631;19;20102;-73
2022/08/22 04:54:41;;;;;;;14.43;6.55;;;16.00;99.90;;;;;;3057859;19;20042;-74
2022/08/22 04:55:56;;;;;;;14.38;6.40;;;16.10;99.90;;;;;;3058099;19;20020;-74
2022/08/22 04:57:13;;;;;;;13.15;6.13;;;16.00;99.90;;;;;;3058071;19;20006;-74
2022/08/22 04:58:31;;;;;;;10.98;6.07;;;15.90;99.90;;;;;;3058330;19;20036;-74
2022/08/22 04:59:33;;;;;;;15.50;6.80;;;15.80;99.90;;;;;;3058237;19;20006;-73
2022/08/22 05:00:41;;;;;;;14.77;6.53;;;16.00;99.90;;;;;;3058006;19;20074;-74
2022/08/22 05:01:48;;;;;;;12.65;6.25;;;16.00;99.90;;;;;;3058035;19;20077;-74
2022/08/22 05:02:51;;;;;;;11.40;6.10;;;16.10;99.90;;;;;;3057811;19;20417;-74
2022/08/22 05:03:59;;;;;;;11.93;6.30;;;16.10;99.90;;;;;;3057913;19;20066;-74
2022/08/22 05:05:04;;;;;;;10.93;6.40;;;16.10;99.90;;;;;;3058049;19;20035;-74
2022/08/22 05:06:12;;;;;;;12.75;6.22;;;16.20;99.90;;;;;;3058016;19;20017;-74
2022/08/22 05:07:17;;;;;;;16.15;6.97;;;16.20;99.90;;;;;;3057723;19;20031;-74
2022/08/22 05:08:26;;;;;;;10.15;6.10;;;16.30;99.90;;;;;;3058101;19;20011;-74
2022/08/22 05:09:31;;;;;;;15.00;6.75;;;16.30;99.90;;;;;;3057201;19;20384;-74
2022/08/22 05:10:38;;;;;;;10.48;6.20;;;16.40;99.90;;;;;;3057725;19;20007;-73
2022/08/22 05:11:41;;;;;;;13.48;6.60;;;16.40;99.90;;;;;;3057918;19;20003;-74
2022/08/22 05:12:51;;;;;;;12.77;6.18;;;16.40;99.90;;;;;;3057713;19;20006;-74
2022/08/22 05:14:01;;;;;;;11.45;5.95;;;16.40;99.90;;;;;;3057533;19;20028;-74
2022/08/22 05:15:08;;;;;;;9.85;6.15;;;16.30;99.90;;;;;;3057768;19;20010;-74
2022/08/22 05:16:14;;;;;;;12.63;5.68;;;16.10;99.90;;;;;;3057953;19;20372;-74
2022/08/22 05:17:23;;;;;;;12.63;6.72;;;16.30;99.90;;;;;;3057723;19;20022;-74
2022/08/22 05:18:28;;;;;;;14.60;6.63;;;16.50;99.90;;;;;;3057786;19;20018;-76
2022/08/22 05:19:36;;;;;;;13.55;6.10;;;15.00;99.90;;;;;;3057096;19;20036;-74
2022/08/22 05:20:39;;;;;;;14.48;6.32;;;16.40;99.90;;;;;;3057752;19;20398;-75
2022/08/22 05:21:44;;;;;;;15.20;6.60;;;16.50;99.90;;;;;;3057708;19;20048;-73
2022/08/22 05:22:50;;;;;;;11.15;6.13;;;16.50;99.90;;;;;;3057840;19;20002;-75
2022/08/22 05:23:58;;;;;;;12.38;6.13;;;16.50;99.90;;;;;;3057634;19;20006;-75
2022/08/22 05:25:04;;;;;;;12.57;6.10;;;16.50;99.90;;;;;;3057690;19;20021;-73
2022/08/22 05:26:09;;;;;;;12.48;5.93;;;16.50;99.90;;;;;;3057687;19;20014;-75
2022/08/22 05:27:14;;;;;;;12.95;6.22;;;16.50;99.90;;;;;;3057177;19;20043;-74
2022/08/22 05:28:27;;;;;;;11.85;6.18;;;16.60;99.90;;;;;;3057785;19;20010;-75
2022/08/22 05:29:31;;;;;;;10.98;6.65;;;16.50;99.90;;;;;;3057214;19;20014;-75
2022/08/22 05:30:37;;;;;;;13.38;6.32;;;16.60;99.90;;;;;;3057522;19;20472;-75
2022/08/22 05:31:45;;;;;;;13.20;6.10;;;17.00;99.90;;;;;;3057473;19;20014;-75
2022/08/22 05:32:53;;;;;;;11.93;6.28;;;16.60;99.90;;;;;;3057904;19;20007;-75
2022/08/22 05:34:00;;;;;;;13.82;6.28;;;16.60;99.90;;;;;;3057724;19;20017;-75
2022/08/22 05:35:07;;;;;;;13.13;6.60;;;16.50;99.90;;;;;;3057930;19;20007;-75
2022/08/22 05:36:14;;;;;;;12.82;6.32;;;16.70;99.90;;;;;;3057623;19;20095;-75
2022/08/22 05:37:19;;;;;;;13.20;6.50;;;16.50;99.90;;;;;;3057671;19;20007;-75
2022/08/22 05:38:29;;;;;;;14.88;7.63;;;16.50;99.90;;;;;;3058596;19;20088;-75
2022/08/22 05:39:31;;;;;;;11.13;6.30;;;16.60;99.90;;;;;;3060756;19;20014;-75
2022/08/22 05:40:37;;;;;;;12.95;6.55;;;16.50;99.90;;;;;;3060296;19;20010;-75
2022/08/22 05:41:39;;;;;;;9.20;6.10;;;16.90;99.90;;;;;;3061973;19;20542;-75
2022/08/22 05:42:45;;;;;;;12.48;6.60;;;16.70;99.90;;;;;;3060463;19;20025;-76
2022/08/22 05:43:49;;;;;;;12.52;6.95;;;16.60;99.90;;;;;;3060534;19;20397;-74
2022/08/22 05:44:56;;;;;;;13.90;6.95;;;16.60;99.90;;;;;;3060874;19;20096;-75
2022/08/22 05:45:58;;;;;;;16.60;7.30;;;16.60;99.90;;;;;;3060594;19;20014;-75
2022/08/22 05:47:05;;;;;;;12.52;7.07;;;16.60;99.90;;;;;;3060542;19;20011;-75
2022/08/22 05:48:10;;;;;;;12.88;7.38;;;16.80;99.90;;;;;;3060541;19;20014;-75
2022/08/22 05:49:20;;;;;;;13.02;7.18;;;16.60;99.90;;;;;;3059784;19;20032;-75
2022/08/22 05:50:36;;;;;;;12.27;7.22;;;16.60;99.90;;;;;;3060575;19;20016;-75
2022/08/22 05:51:44;;;;;;;11.75;6.93;;;16.70;99.90;;;;;;3060623;19;20031;-75
2022/08/22 05:53:01;;;;;;;14.43;7.47;;;16.70;99.90;;;;;;3060227;19;20014;-75
2022/08/22 05:54:11;;;;;;;14.00;7.60;;;16.60;99.90;;;;;;3060418;19;20015;-75
2022/08/22 05:55:26;;;;;;;16.35;7.63;;;16.80;99.90;;;;;;3060402;19;20014;-75
2022/08/22 05:56:35;;;;;;;12.45;6.75;;;15.70;99.90;;;;;;3060548;19;20014;-76
2022/08/22 05:57:44;;;;;;;13.50;6.75;;;16.80;99.90;;;;;;3060332;19;20006;-75
2022/08/22 05:58:54;;;;;;;14.65;7.07;;;16.70;99.90;;;;;;3060360;19;20381;-75
2022/08/22 06:00:07;;;;;;;14.40;7.28;;;16.80;99.90;;;;;;3060635;19;20006;-76
2022/08/22 06:01:24;;;;;;;15.45;6.80;;;16.80;99.90;;;;;;3060282;19;20027;-75
2022/08/22 06:02:38;;;;;;;11.00;6.97;;;16.90;99.90;;;;;;3060546;19;20460;-75
2022/08/22 06:03:49;;;;;;;13.07;7.70;;;16.80;99.90;;;;;;3060136;19;20010;-75
2022/08/22 06:04:59;;;;;;;12.63;6.43;;;16.90;99.90;;;;;;3060209;19;20018;-75
2022/08/22 06:06:09;;;;;;;19.35;7.43;;;16.80;99.90;;;;;;3060428;19;20014;-75
2022/08/22 06:07:19;;;;;;;12.77;7.88;;;16.80;99.90;;;;;;3060188;19;20495;-75
2022/08/22 06:08:28;;;;;;;12.43;6.70;;;16.90;99.90;;;;;;3060156;19;20356;-75
2022/08/22 06:09:36;;;;;;;12.07;6.60;;;16.90;99.90;;;;;;3059668;19;20031;-75
2022/08/22 06:10:41;;;;;;;14.32;7.18;;;17.00;99.90;;;;;;3060283;19;20015;-75
2022/08/22 06:11:49;;;;;;;11.00;6.40;;;16.90;99.90;;;;;;3060069;19;20015;-75
2022/08/22 06:12:57;;;;;;;12.80;6.35;;;16.90;99.90;;;;;;3060342;19;20006;-75
2022/08/22 06:14:09;;;;;;;12.77;6.30;;;17.00;99.90;;;;;;3059615;19;20078;-75
2022/08/22 06:15:18;;;;;;;17.75;6.68;;;17.00;99.90;;;;;;3060171;19;20010;-75
2022/08/22 06:16:30;;;;;;;14.73;6.93;;;17.10;99.90;;;;;;3060067;19;20326;-75
2022/08/22 06:17:37;;;;;;;16.65;6.97;;;17.10;99.90;;;;;;3060119;19;20014;-75
2022/08/22 06:18:44;;;;;;;11.98;6.70;;;18.50;99.90;;;;;;3060349;19;20006;-75
2022/08/22 06:19:48;;;;;;;11.48;6.63;;;17.20;99.90;;;;;;3059733;19;20123;-75
2022/08/22 06:20:57;;;;;;;13.98;7.15;;;17.20;99.90;;;;;;3060070;19;20814;-75
2022/08/22 06:22:00;;;;;;;14.52;6.45;;;17.20;99.90;;;;;;3060048;19;20014;-75
2022/08/22 06:23:05;;;;;;;14.80;6.93;;;17.10;99.90;;;;;;3060395;19;20018;-75
2022/08/22 06:24:11;;;;;;;9.43;6.55;;;17.20;99.90;;;;;;3058898;19;20551;-74
2022/08/22 06:25:23;;;;;;;13.05;6.10;;;17.10;99.90;;;;;;3059402;19;20019;-75